Time;durP1;ratioP1;P1;durP2;ratioP2;P2;SDS_P1;SDS_P2;PMS_P1;PMS_P2;Temp;Humidity;BMP_temperature;BMP_pressure;BME280_temperature;BME280_humidity;BME280_pressure;Samples;Min_cycle;Max_cycle;Signal;HPM_P1;HPM_P2
2021/12/12 00:00:20;;;;;;;;;;;;;;;4.81;100.00;101949.91;4996653;28;19918;-78
2021/12/12 00:02:56;;;;;;;;;;;;;;;4.79;100.00;101942.75;4995997;28;19914;-78
2021/12/12 00:05:23;;;;;;;;;;;;;;;4.80;100.00;101941.94;4996367;28;20495;-77
2021/12/12 00:07:49;;;;;;;;;;;;;;;4.80;100.00;101935.06;4996148;28;20412;-77
2021/12/12 00:10:17;;;;;;;;;;;;;;;4.78;100.00;101933.09;4994258;28;19917;-78
2021/12/12 00:12:44;;;;;;;;;;;;;;;4.75;100.00;101935.47;4996006;28;19925;-77
2021/12/12 00:15:12;;;;;;;;;;;;;;;4.79;100.00;101935.84;4996562;28;19918;-78
2021/12/12 00:17:39;;;;;;;;;;;;;;;4.76;100.00;101925.16;4996314;28;20586;-77
2021/12/12 00:20:05;;;;;;;;;;;;;;;4.74;100.00;101920.59;4996197;28;19918;-77
2021/12/12 00:22:32;;;;;;;;;;;;;;;4.77;100.00;101923.44;4996207;28;19918;-77
2021/12/12 00:24:58;;;;;;;;;;;;;;;4.77;100.00;101915.63;4995865;28;19925;-76
2021/12/12 00:27:25;;;;;;;;;;;;;;;4.75;100.00;101914.59;4996187;28;19963;-77
2021/12/12 00:29:51;;;;;;;;;;;;;;;4.79;100.00;101907.13;4995741;28;20069;-77
2021/12/12 00:32:17;;;;;;;;;;;;;;;4.76;100.00;101904.28;4996226;28;20410;-77
2021/12/12 00:34:53;;;;;;;;;;;;;;;4.76;100.00;101908.59;4996004;28;20285;-78
2021/12/12 00:37:19;;;;;;;;;;;;;;;4.80;100.00;101902.81;4995697;28;20004;-76
2021/12/12 00:39:50;;;;;;;;;;;;;;;4.75;100.00;101899.84;4996027;28;20004;-77
2021/12/12 00:42:17;;;;;;;;;;;;;;;4.80;100.00;101889.75;4980044;28;19972;-78
2021/12/12 00:44:44;;;;;;;;;;;;;;;4.80;100.00;101898.50;4995570;28;19924;-78
2021/12/12 00:47:10;;;;;;;;;;;;;;;4.80;100.00;101890.69;4995598;28;20364;-78
2021/12/12 00:49:37;;;;;;;;;;;;;;;4.79;100.00;101885.34;4995559;28;19917;-78
2021/12/12 00:52:04;;;;;;;;;;;;;;;4.84;100.00;101892.72;4996566;28;19968;-77
2021/12/12 00:54:31;;;;;;;;;;;;;;;4.83;100.00;101877.88;4996143;28;19913;-78
2021/12/12 00:57:02;;;;;;;;;;;;;;;4.85;100.00;101880.59;4995650;28;19917;-78
2021/12/12 00:59:29;;;;;;;;;;;;;;;4.85;100.00;101896.25;4995346;28;20358;-78
2021/12/12 01:01:55;;;;;;;;;;;;;;;4.87;100.00;101885.94;4995259;28;20250;-77
2021/12/12 01:04:29;;;;;;;;;;;;;;;4.88;100.00;101888.66;4995408;28;19918;-77
2021/12/12 01:06:56;;;;;;;;;;;;;;;4.91;100.00;101894.09;4995039;28;19918;-77
2021/12/12 01:09:26;;;;;;;;;;;;;;;4.91;100.00;101890.56;4995476;28;20016;-78
2021/12/12 01:11:53;;;;;;;;;;;;;;;4.93;100.00;101887.28;4995060;28;19918;-77
2021/12/12 01:14:23;;;;;;;;;;;;;;;4.91;100.00;101880.13;4995121;28;19917;-78
2021/12/12 01:16:51;;;;;;;;;;;;;;;4.92;100.00;101885.47;4994962;28;19924;-77
2021/12/12 01:19:26;;;;;;;;;;;;;;;4.89;100.00;101873.91;4995071;28;19918;-77
2021/12/12 01:21:55;;;;;;;;;;;;;;;4.91;100.00;101878.44;4995085;28;20008;-77
2021/12/12 01:24:40;;;;;;;;;;;;;;;4.91;100.00;101878.44;4995408;28;19925;-77
2021/12/12 01:27:07;;;;;;;;;;;;;;;4.95;100.00;101884.78;4994241;28;19972;-77
2021/12/12 01:29:32;;;;;;;;;;;;;;;4.95;100.00;101880.47;4995203;28;20338;-77
2021/12/12 01:32:00;;;;;;;;;;;;;;;4.94;100.00;101878.69;4995092;28;20192;-78
2021/12/12 01:34:28;;;;;;;;;;;;;;;4.93;100.00;101878.56;4994683;28;19917;-78
2021/12/12 01:39:31;;;;;;;;;;;;;;;4.97;100.00;101873.69;4995673;28;20331;-78
2021/12/12 01:41:56;;;;;;;;;;;;;;;4.98;100.00;101891.16;4994314;28;19917;-77
2021/12/12 01:44:28;;;;;;;;;;;;;;;4.95;100.00;101888.31;4994723;28;19925;-77
2021/12/12 01:47:12;;;;;;;;;;;;;;;4.96;100.00;101874.47;5009234;28;20019;-78
2021/12/12 01:49:39;;;;;;;;;;;;;;;4.95;100.00;101863.91;5013931;28;19925;-78
2021/12/12 01:52:07;;;;;;;;;;;;;;;4.94;100.00;101868.25;5014141;28;19951;-79
2021/12/12 01:54:42;;;;;;;;;;;;;;;4.95;100.00;101875.25;5013623;28;19939;-77
2021/12/12 01:57:08;;;;;;;;;;;;;;;4.95;100.00;101867.41;5013541;28;20064;-78
2021/12/12 01:59:35;;;;;;;;;;;;;;;4.96;100.00;101860.53;5011839;28;20042;-77
2021/12/12 02:02:07;;;;;;;;;;;;;;;4.95;100.00;101843.03;5013326;28;19924;-78
2021/12/12 02:04:35;;;;;;;;;;;;;;;4.93;100.00;101840.31;4997637;28;20011;-78
2021/12/12 02:07:01;;;;;;;;;;;;;;;4.97;100.00;101842.38;5013441;28;19917;-77
2021/12/12 02:09:32;;;;;;;;;;;;;;;5.00;100.00;101849.50;5013961;28;19924;-78
2021/12/12 02:11:59;;;;;;;;;;;;;;;4.96;100.00;101840.53;5013719;28;19924;-78
2021/12/12 02:14:26;;;;;;;;;;;;;;;4.95;100.00;101843.03;5013750;28;19917;-78
2021/12/12 02:16:53;;;;;;;;;;;;;;;4.95;100.00;101827.38;4997225;28;19960;-78
2021/12/12 02:19:30;;;;;;;;;;;;;;;4.95;100.00;101833.50;5013450;28;19991;-77
2021/12/12 02:22:15;;;;;;;;;;;;;;;4.97;100.00;101837.16;5013776;28;19924;-78
2021/12/12 02:38:12;;;;;;;;;;;;;;;5.16;100.00;101812.41;5014500;28;20369;-78
2021/12/12 02:40:42;;;;;;;;;;;;;;;5.19;100.00;101825.69;5009945;28;20412;-78
2021/12/12 02:43:08;;;;;;;;;;;;;;;5.18;100.00;101811.69;5047253;28;19920;-78
2021/12/12 02:45:35;;;;;;;;;;;;;;;5.24;100.00;101803.41;5036189;28;19920;-78
2021/12/12 02:48:05;;;;;;;;;;;;;;;5.25;100.00;101804.31;5034872;28;19923;-78
2021/12/12 02:50:33;;;;;;;;;;;;;;;5.26;100.00;101795.69;5036673;28;19917;-78
2021/12/12 02:53:01;;;;;;;;;;;;;;;5.26;100.00;101803.53;5036179;28;20007;-78
2021/12/12 02:55:29;;;;;;;;;;;;;;;5.28;100.00;101794.09;5019864;28;20431;-78
2021/12/12 02:57:56;;;;;;;;;;;;;;;5.32;100.00;101796.13;5035586;28;20340;-77
2021/12/12 03:00:22;;;;;;;;;;;;;;;5.32;100.00;101793.53;5036642;28;20344;-78
2021/12/12 03:02:48;;;;;;;;;;;;;;;5.35;100.00;101798.97;5036105;28;19920;-78
2021/12/12 03:05:15;;;;;;;;;;;;;;;5.37;100.00;101786.91;5035958;28;19916;-79
2021/12/12 03:07:43;;;;;;;;;;;;;;;5.38;100.00;101780.91;5036157;28;19920;-79
2021/12/12 03:10:11;;;;;;;;;;;;;;;5.36;100.00;101787.69;5036601;28;19921;-79
2021/12/12 03:12:37;;;;;;;;;;;;;;;5.39;100.00;101774.84;5035791;28;19912;-78
2021/12/12 03:15:14;;;;;;;;;;;;;;;5.38;100.00;101778.28;5036197;28;19916;-77
2021/12/12 03:17:42;;;;;;;;;;;;;;;5.40;100.00;101769.75;5036165;28;19969;-77
2021/12/12 03:20:11;;;;;;;;;;;;;;;5.37;100.00;101779.97;5035650;28;20360;-78
2021/12/12 03:22:36;;;;;;;;;;;;;;;5.37;100.00;101772.13;5035972;28;19920;-78
2021/12/12 03:25:02;;;;;;;;;;;;;;;5.39;100.00;101760.13;5036161;28;20027;-78
2021/12/12 03:27:33;;;;;;;;;;;;;;;5.37;100.00;101766.00;5035299;28;19917;-77
2021/12/12 03:29:58;;;;;;;;;;;;;;;5.34;100.00;101761.47;5035780;28;19947;-78
2021/12/12 03:32:24;;;;;;;;;;;;;;;5.34;100.00;101758.84;5035885;28;20340;-77
2021/12/12 03:34:54;;;;;;;;;;;;;;;5.33;100.00;101749.22;5035393;28;19917;-78
2021/12/12 03:37:21;;;;;;;;;;;;;;;5.33;100.00;101751.84;5053122;28;19927;-78
2021/12/12 03:39:49;;;;;;;;;;;;;;;5.34;100.00;101755.34;5035757;28;20344;-76
2021/12/12 03:42:20;;;;;;;;;;;;;;;5.33;100.00;101748.28;5025373;28;19921;-78
2021/12/12 03:44:45;;;;;;;;;;;;;;;5.30;100.00;101743.78;5012814;28;19917;-78
2021/12/12 03:47:17;;;;;;;;;;;;;;;5.34;100.00;101745.78;5012634;28;19924;-79
2021/12/12 03:49:42;;;;;;;;;;;;;;;5.32;100.00;101750.00;5012488;28;20257;-79
2021/12/12 03:52:10;;;;;;;;;;;;;;;5.34;100.00;101751.03;5013996;28;19940;-78
2021/12/12 03:54:36;;;;;;;;;;;;;;;5.39;100.00;101744.44;4996589;28;19917;-78
2021/12/12 03:57:02;;;;;;;;;;;;;;;5.37;100.00;101738.19;5012777;28;19928;-77
2021/12/12 03:59:28;;;;;;;;;;;;;;;5.39;100.00;101756.56;5014984;28;19917;-79
2021/12/12 04:01:54;;;;;;;;;;;;;;;5.40;100.00;101754.06;5015886;28;19996;-78
2021/12/12 04:04:28;;;;;;;;;;;;;;;5.39;100.00;101751.34;5016537;28;20016;-79
2021/12/12 04:06:55;;;;;;;;;;;;;;;5.43;100.00;101755.09;5015398;28;19968;-80
2021/12/12 04:09:21;;;;;;;;;;;;;;;5.42;100.00;101746.34;5015438;28;20587;-79
2021/12/12 04:11:48;;;;;;;;;;;;;;;5.42;100.00;101755.91;5014437;28;19972;-79
2021/12/12 04:14:14;;;;;;;;;;;;;;;5.44;100.00;101757.84;5015918;28;20337;-79
2021/12/12 04:16:41;;;;;;;;;;;;;;;5.47;100.00;101755.44;5016128;28;19924;-80
2021/12/12 04:19:09;;;;;;;;;;;;;;;5.46;100.00;101761.44;5015619;28;19943;-79
2021/12/12 04:21:36;;;;;;;;;;;;;;;5.50;100.00;101759.94;5016299;28;19944;-81
2021/12/12 04:24:03;;;;;;;;;;;;;;;5.46;100.00;101760.56;5015761;28;19917;-79
2021/12/12 04:26:30;;;;;;;;;;;;;;;5.45;100.00;101754.41;5016076;28;19917;-79
2021/12/12 04:29:01;;;;;;;;;;;;;;;5.50;100.00;101752.13;5015353;28;20353;-79
2021/12/12 04:31:27;;;;;;;;;;;;;;;5.53;100.00;101752.34;5015784;28;19971;-80
2021/12/12 04:33:52;;;;;;;;;;;;;;;5.50;100.00;101746.88;5015417;28;20375;-81
2021/12/12 04:36:23;;;;;;;;;;;;;;;5.52;100.00;101745.31;5015672;28;19914;-81
2021/12/12 04:38:48;;;;;;;;;;;;;;;5.52;100.00;101746.22;5014818;28;19982;-81
2021/12/12 04:41:13;;;;;;;;;;;;;;;5.58;100.00;101754.47;5015988;28;19996;-81
2021/12/12 04:43:40;;;;;;;;;;;;;;;5.58;100.00;101750.97;5015358;28;19921;-80
2021/12/12 04:46:09;;;;;;;;;;;;;;;5.62;100.00;101747.75;5015585;28;20272;-79
2021/12/12 04:51:52;;;;;;;;;;;;;;;5.63;100.00;101748.69;5015944;28;19968;-79
2021/12/12 04:54:24;;;;;;;;;;;;;;;5.65;100.00;101737.53;5015810;28;20340;-78
2021/12/12 04:57:15;;;;;;;;;;;;;;;5.64;100.00;101740.94;5015133;28;20371;-79
2021/12/12 04:59:43;;;;;;;;;;;;;;;5.65;100.00;101737.53;4999857;28;19944;-79
2021/12/12 05:02:29;;;;;;;;;;;;;;;5.61;100.00;101737.19;5015350;28;19917;-79
2021/12/12 05:04:56;;;;;;;;;;;;;;;5.65;100.00;101737.53;5014739;28;19929;-79
2021/12/12 05:07:36;;;;;;;;;;;;;;;5.68;100.00;101745.56;5015319;28;19960;-80
2021/12/12 05:10:07;;;;;;;;;;;;;;;5.71;100.00;101744.88;5014056;28;19971;-80
2021/12/12 05:12:51;;;;;;;;;;;;;;;5.77;100.00;101747.94;5014909;28;20242;-80
2021/12/12 05:15:30;;;;;;;;;;;;;;;5.72;100.00;101750.22;5015233;28;19917;-78
2021/12/12 05:18:01;;;;;;;;;;;;;;;5.77;100.00;101739.19;5014800;28;19932;-79
2021/12/12 05:20:29;;;;;;;;;;;;;;;5.84;100.00;101749.25;5015050;28;19949;-79
2021/12/12 05:22:56;;;;;;;;;;;;;;;5.81;100.00;101755.19;5014475;28;19913;-79
2021/12/12 05:25:24;;;;;;;;;;;;;;;5.83;100.00;101752.69;5014324;28;19917;-79
2021/12/12 05:27:52;;;;;;;;;;;;;;;5.91;100.00;101760.25;5014777;28;19918;-79
2021/12/12 05:30:21;;;;;;;;;;;;;;;5.90;100.00;101760.13;5014496;28;19913;-79
2021/12/12 05:32:47;;;;;;;;;;;;;;;5.89;100.00;101756.63;5014518;28;19924;-79
2021/12/12 05:35:15;;;;;;;;;;;;;;;5.93;100.00;101766.50;5014799;28;19913;-78
2021/12/12 05:37:42;;;;;;;;;;;;;;;5.94;100.00;101772.63;5014590;28;20266;-79
2021/12/12 05:40:09;;;;;;;;;;;;;;;5.97;100.00;101767.66;5014937;28;19917;-79
2021/12/12 05:42:35;;;;;;;;;;;;;;;5.97;100.00;101767.66;5014563;28;19945;-79
2021/12/12 05:45:02;;;;;;;;;;;;;;;6.03;100.00;101770.69;5015320;28;19922;-79
2021/12/12 05:47:29;;;;;;;;;;;;;;;6.01;100.00;101769.69;5014579;28;19913;-79
2021/12/12 05:49:56;;;;;;;;;;;;;;;6.09;100.00;101773.72;5015561;28;19996;-79
2021/12/12 05:52:22;;;;;;;;;;;;;;;6.08;100.00;101771.91;5014240;28;19913;-79
2021/12/12 05:54:48;;;;;;;;;;;;;;;6.07;100.00;101767.47;5013923;28;19918;-79
2021/12/12 05:57:19;;;;;;;;;;;;;;;6.10;100.00;101772.00;5014093;28;19924;-79
2021/12/12 05:59:46;;;;;;;;;;;;;;;6.14;100.00;101768.81;5014224;28;19969;-79
2021/12/12 06:02:13;;;;;;;;;;;;;;;6.11;100.00;101777.34;5013908;28;19917;-79
2021/12/12 06:04:39;;;;;;;;;;;;;;;6.13;100.00;101771.31;5014234;28;19921;-79
2021/12/12 06:07:06;;;;;;;;;;;;;;;6.18;100.00;101772.53;5013918;28;19925;-79
2021/12/12 06:09:32;;;;;;;;;;;;;;;6.20;100.00;101781.38;5013777;28;19925;-79
2021/12/12 06:11:58;;;;;;;;;;;;;;;6.24;100.00;101778.19;5013572;28;19917;-81
2021/12/12 06:14:24;;;;;;;;;;;;;;;6.24;100.00;101778.19;5013770;28;19922;-80
2021/12/12 06:16:49;;;;;;;;;;;;;;;6.27;100.00;101778.41;5013385;28;19924;-79
2021/12/12 06:19:19;;;;;;;;;;;;;;;6.28;100.00;101781.13;5013726;28;19925;-80
2021/12/12 06:21:50;;;;;;;;;;;;;;;6.33;100.00;101777.91;5011834;28;19917;-80
2021/12/12 06:24:15;;;;;;;;;;;;;;;6.34;100.00;101775.41;5011793;28;19914;-79
2021/12/12 06:26:41;;;;;;;;;;;;;;;6.40;100.00;101778.44;5013882;28;20246;-79
2021/12/12 06:29:14;;;;;;;;;;;;;;;6.42;100.00;101784.69;5013136;28;19960;-80
2021/12/12 06:31:42;;;;;;;;;;;;;;;6.40;100.00;101775.81;5013929;28;19918;-80
2021/12/12 06:34:07;;;;;;;;;;;;;;;6.43;100.00;101764.63;5013569;28;20374;-79
2021/12/12 06:36:32;;;;;;;;;;;;;;;6.44;100.00;101769.97;5015051;28;20055;-79
2021/12/12 06:39:00;;;;;;;;;;;;;;;6.46;100.00;101768.38;5014664;28;19917;-79
2021/12/12 06:41:26;;;;;;;;;;;;;;;6.51;100.00;101768.69;5014326;28;19964;-79
2021/12/12 06:43:52;;;;;;;;;;;;;;;6.52;100.00;101780.06;5036208;28;19924;-80
2021/12/12 06:46:18;;;;;;;;;;;;;;;6.53;100.00;101779.28;5026429;28;19917;-79
2021/12/12 06:48:48;;;;;;;;;;;;;;;6.53;100.00;101777.56;5016154;28;19920;-79
2021/12/12 06:51:14;;;;;;;;;;;;;;;6.58;100.00;101770.91;5016775;28;19928;-79
2021/12/12 06:53:41;;;;;;;;;;;;;;;6.62;100.00;101778.16;5016620;28;19917;-79
2021/12/12 06:56:08;;;;;;;;;;;;;;;6.59;100.00;101774.44;5017141;28;19988;-78
2021/12/12 06:58:35;;;;;;;;;;;;;;;6.56;100.00;101774.25;5016684;28;20066;-79
2021/12/12 07:01:08;;;;;;;;;;;;;;;6.67;100.00;101785.44;5016459;28;19917;-78
2021/12/12 07:03:34;;;;;;;;;;;;;;;6.66;100.00;101779.25;5016629;28;19964;-79
2021/12/12 07:05:59;;;;;;;;;;;;;;;6.71;100.00;101782.19;5016592;28;19917;-78
2021/12/12 07:08:26;;;;;;;;;;;;;;;6.69;100.00;101782.09;5016890;28;20422;-80
2021/12/12 07:10:51;;;;;;;;;;;;;;;6.72;100.00;101778.78;5016190;28;19913;-79
2021/12/12 07:13:18;;;;;;;;;;;;;;;6.75;100.00;101779.88;5016723;28;20357;-79
2021/12/12 07:15:46;;;;;;;;;;;;;;;6.73;100.00;101788.47;5016260;28;20391;-79
2021/12/12 07:18:14;;;;;;;;;;;;;;;6.69;100.00;101789.94;5034210;28;20300;-78
2021/12/12 07:20:40;;;;;;;;;;;;;;;6.72;100.00;101795.38;5016377;28;19917;-79
2021/12/12 07:23:09;;;;;;;;;;;;;;;6.75;100.00;101792.97;5000058;28;20515;-79
2021/12/12 07:25:35;;;;;;;;;;;;;;;6.74;100.00;101792.88;5016858;28;19924;-79
2021/12/12 07:28:05;;;;;;;;;;;;;;;6.79;100.00;101802.84;5016940;28;20192;-79
2021/12/12 07:30:31;;;;;;;;;;;;;;;6.80;100.00;101796.78;5016840;28;19921;-80
2021/12/12 07:32:58;;;;;;;;;;;;;;;6.83;100.00;101799.59;5015173;28;19917;-79
2021/12/12 07:35:24;;;;;;;;;;;;;;;6.85;100.00;101797.09;5019458;28;20349;-78
2021/12/12 07:37:50;;;;;;;;;;;;;;;6.86;100.00;101798.03;5018925;28;20003;-79
2021/12/12 07:40:15;;;;;;;;;;;;;;;6.88;100.00;101799.03;5018360;28;20007;-80
2021/12/12 07:42:41;;;;;;;;;;;;;;;6.87;100.00;101799.81;5019108;28;19975;-80
2021/12/12 07:45:07;;;;;;;;;;;;;;;6.89;100.00;101809.59;5018885;28;19967;-80
2021/12/12 07:47:33;;;;;;;;;;;;;;;6.88;100.00;101807.75;5038692;28;19924;-80
2021/12/12 07:49:59;;;;;;;;;;;;;;;6.91;100.00;101807.06;5038588;28;19917;-81
2021/12/12 07:52:25;;;;;;;;;;;;;;;6.91;100.00;101804.47;5038613;28;19917;-80
2021/12/12 07:54:52;;;;;;;;;;;;;;;6.89;100.00;101804.34;5037763;28;19916;-80
2021/12/12 07:57:20;;;;;;;;;;;;;;;6.98;100.00;101809.31;5056299;28;20405;-80
2021/12/12 07:59:45;;;;;;;;;;;;;;;6.99;100.00;101813.72;5037748;28;19923;-79
2021/12/12 08:02:13;;;;;;;;;;;;;;;7.03;100.00;101823.59;5037953;28;19916;-79
2021/12/12 08:04:39;;;;;;;;;;;;;;;7.04;100.00;101822.81;5038438;28;20299;-80
2021/12/12 08:07:08;;;;;;;;;;;;;;;7.03;100.00;101820.97;5037787;28;19917;-80
2021/12/12 08:09:35;;;;;;;;;;;;;;;7.03;100.00;101828.84;5055960;28;20352;-80
2021/12/12 08:12:00;;;;;;;;;;;;;;;7.05;100.00;101828.94;5037906;28;20365;-80
2021/12/12 08:14:26;;;;;;;;;;;;;;;7.05;100.00;101835.06;5037399;28;19951;-80
2021/12/12 08:16:52;;;;;;;;;;;;;;;7.07;100.00;101836.09;5038255;28;19916;-79
2021/12/12 08:19:20;;;;;;;;;;;;;;;7.08;100.00;101837.88;5037936;28;19920;-77
2021/12/12 08:21:46;;;;;;;;;;;;;;;7.07;100.00;101840.41;5038965;28;20011;-80
2021/12/12 08:24:12;;;;;;;;;;;;;;;7.09;100.00;101844.06;5039088;28;19917;-80
2021/12/12 08:26:39;;;;;;;;;;;;;;;7.06;100.00;101842.13;5038532;28;19917;-78
2021/12/12 08:29:05;;;;;;;;;;;;;;;7.08;100.00;101858.84;5037506;28;19917;-78
2021/12/12 08:31:31;;;;;;;;;;;;;;;7.06;100.00;101852.59;5038045;28;19924;-80
2021/12/12 08:33:56;;;;;;;;;;;;;;;7.10;100.00;101852.03;5038050;28;20273;-79
2021/12/12 08:36:22;;;;;;;;;;;;;;;7.12;100.00;101862.59;5035585;28;19959;-78
2021/12/12 08:38:52;;;;;;;;;;;;;;;7.17;100.00;101859.44;5037975;28;20639;-81
2021/12/12 08:41:17;;;;;;;;;;;;;;;7.16;100.00;101861.97;5038195;28;19917;-80
2021/12/12 08:43:43;;;;;;;;;;;;;;;7.17;100.00;101861.19;5038424;28;19920;-79
2021/12/12 08:46:11;;;;;;;;;;;;;;;7.22;100.00;101861.47;5037622;28;19917;-79
2021/12/12 08:48:40;;;;;;;;;;;;;;;7.24;100.00;101854.63;5038599;28;20007;-79
2021/12/12 08:51:08;;;;;;;;;;;;;;;7.29;100.00;101859.38;5038390;28;20013;-80
2021/12/12 08:53:33;;;;;;;;;;;;;;;7.33;100.00;101866.63;5038473;28;20058;-80
2021/12/12 08:55:59;;;;;;;;;;;;;;;7.38;100.00;101866.94;5038690;28;20367;-79
2021/12/12 08:58:27;;;;;;;;;;;;;;;7.37;100.00;101876.47;5037908;28;19916;-80
2021/12/12 09:00:55;;;;;;;;;;;;;;;7.42;100.00;101876.78;5038182;28;19917;-80
2021/12/12 09:03:26;;;;;;;;;;;;;;;7.46;100.00;101877.91;5037973;28;19952;-79
2021/12/12 09:05:52;;;;;;;;;;;;;;;7.46;100.00;101878.81;5021171;28;19921;-80
2021/12/12 09:08:33;;;;;;;;;;;;;;;7.52;100.00;101886.19;5037955;28;19924;-82
2021/12/12 09:11:01;;;;;;;;;;;;;;;7.61;100.00;101888.47;5036837;28;19916;-79
2021/12/12 09:13:30;;;;;;;;;;;;;;;7.57;100.00;101881.19;5037787;28;19917;-78
2021/12/12 09:16:03;;;;;;;;;;;;;;;7.64;100.00;101889.56;5036632;28;20345;-80
2021/12/12 09:18:41;;;;;;;;;;;;;;;7.63;100.00;101889.47;5035827;28;19944;-81
2021/12/12 09:21:10;;;;;;;;;;;;;;;7.77;100.00;101895.59;5036711;28;19969;-78
2021/12/12 09:23:49;;;;;;;;;;;;;;;7.80;100.00;101887.91;5037867;28;20073;-79
2021/12/12 09:26:18;;;;;;;;;;;;;;;7.81;100.00;101898.50;5037530;28;19963;-80
2021/12/12 09:28:46;;;;;;;;;;;;;;;7.78;100.00;101903.56;5037651;28;19924;-80
2021/12/12 09:31:17;;;;;;;;;;;;;;;7.78;100.00;101913.16;5037188;28;19923;-79
2021/12/12 09:33:45;;;;;;;;;;;;;;;7.80;100.00;101909.81;5036876;28;19969;-82
2021/12/12 09:36:13;;;;;;;;;;;;;;;7.75;100.00;101916.47;5037457;28;20268;-79
2021/12/12 09:38:45;;;;;;;;;;;;;;;7.73;100.00;101921.63;5036754;28;19916;-79
2021/12/12 09:41:14;;;;;;;;;;;;;;;7.76;100.00;101915.66;5037154;28;19923;-80
2021/12/12 09:43:39;;;;;;;;;;;;;;;7.76;100.00;101910.44;5036405;28;19978;-79
2021/12/12 09:46:18;;;;;;;;;;;;;;;7.76;100.00;101926.16;5036723;28;19916;-81
2021/12/12 09:51:53;;;;;;;;;;;;;;;7.84;100.00;101926.66;5055167;28;19924;-79
2021/12/12 09:54:37;;;;;;;;;;;;;;;7.83;100.00;101920.50;5036238;28;20284;-79
2021/12/12 09:57:02;;;;;;;;;;;;;;;7.84;100.00;101924.03;5035847;28;19916;-78
2021/12/12 09:59:43;;;;;;;;;;;;;;;7.85;100.00;101921.50;5036086;28;19924;-79
2021/12/12 10:02:09;;;;;;;;;;;;;;;7.89;100.00;101925.22;5037674;28;19920;-78
2021/12/12 10:05:01;;;;;;;;;;;;;;;7.96;100.00;101921.28;5039188;28;20367;-80
2021/12/12 10:07:36;;;;;;;;;;;;;;;7.94;100.00;101915.97;5037145;28;20344;-81
2021/12/12 10:10:06;;;;;;;;;;;;;;;7.90;100.00;101920.06;5036870;28;19960;-81
2021/12/12 10:12:36;;;;;;;;;;;;;;;7.97;100.00;101925.72;5037112;28;19917;-79
2021/12/12 10:15:11;;;;;;;;;;;;;;;7.96;100.00;101919.56;5035863;28;20009;-79
2021/12/12 10:17:53;;;;;;;;;;;;;;;8.06;100.00;101915.81;5036906;28;19923;-81
2021/12/12 10:20:26;;;;;;;;;;;;;;;8.05;100.00;101924.50;5035862;28;19917;-79
2021/12/12 10:23:07;;;;;;;;;;;;;;;8.11;100.00;101914.41;5054274;28;19923;-79
2021/12/12 10:25:52;;;;;;;;;;;;;;;8.14;100.00;101914.59;5036831;28;19917;-79
2021/12/12 10:28:27;;;;;;;;;;;;;;;8.29;100.00;101924.22;5030862;28;19917;-79
2021/12/12 10:31:16;;;;;;;;;;;;;;;8.30;100.00;101920.78;5029291;28;20000;-79
2021/12/12 10:33:55;;;;;;;;;;;;;;;8.32;100.00;101925.31;5032026;28;19917;-79
2021/12/12 10:36:30;;;;;;;;;;;;;;;8.32;100.00;101919.16;5032503;28;19948;-79
2021/12/12 10:39:02;;;;;;;;;;;;;;;8.30;100.00;101926.94;5014984;28;19917;-79
2021/12/12 10:41:38;;;;;;;;;;;;;;;8.29;100.00;101926.84;5015133;28;19917;-78
2021/12/12 10:44:03;;;;;;;;;;;;;;;8.30;100.00;101928.66;5014419;28;19927;-79
2021/12/12 10:46:48;;;;;;;;;;;;;;;8.34;100.00;101928.03;5021069;28;19917;-78
2021/12/12 10:49:26;;;;;;;;;;;;;;;8.38;100.00;101930.06;5036466;28;20015;-78
2021/12/12 10:52:18;;;;;;;;;;;;;;;8.42;100.00;101930.34;5025111;28;19932;-79
2021/12/12 10:55:05;;;;;;;;;;;;;;;8.43;100.00;101923.34;5015426;28;19964;-78
2021/12/12 10:57:38;;;;;;;;;;;;;;;8.44;100.00;101923.50;5015929;28;20008;-77
2021/12/12 11:00:07;;;;;;;;;;;;;;;8.50;100.00;101924.66;5014663;28;19921;-78
2021/12/12 11:02:35;;;;;;;;;;;;;;;8.55;100.00;101925.88;5014472;28;19923;-78
2021/12/12 11:05:08;;;;;;;;;;;;;;;8.58;100.00;101931.31;5013465;28;19963;-78
2021/12/12 11:07:39;;;;;;;;;;;;;;;8.68;100.00;101932.78;5014476;28;19917;-78
2021/12/12 11:10:07;;;;;;;;;;;;;;;8.69;100.00;101931.97;5017087;28;19917;-78
2021/12/12 11:12:42;;;;;;;;;;;;;;;8.75;100.00;101935.88;5018381;28;20225;-79
2021/12/12 11:15:08;;;;;;;;;;;;;;;8.71;100.00;101927.72;5018121;28;19924;-80
2021/12/12 11:17:37;;;;;;;;;;;;;;;8.77;100.00;101941.22;5018065;28;19916;-78
2021/12/12 11:20:08;;;;;;;;;;;;;;;8.79;100.00;101929.06;5018218;28;20585;-79
2021/12/12 11:22:36;;;;;;;;;;;;;;;8.87;100.00;101933.09;5018221;28;19928;-79
2021/12/12 11:25:08;;;;;;;;;;;;;;;8.79;100.00;101940.50;5017438;28;20271;-79
2021/12/12 11:27:35;;;;;;;;;;;;;;;8.84;100.00;101942.47;5017866;28;19917;-79
2021/12/12 11:30:07;;;;;;;;;;;;;;;8.81;100.00;101937.97;5018206;28;20073;-79
2021/12/12 11:32:35;;;;;;;;;;;;;;;8.83;100.00;101933.72;5018114;28;19928;-79
2021/12/12 11:35:01;;;;;;;;;;;;;;;8.82;100.00;101937.13;5017979;28;19920;-79
2021/12/12 11:37:33;;;;;;;;;;;;;;;8.91;100.00;101932.44;5035484;28;20404;-79
2021/12/12 11:40:17;;;;;;;;;;;;;;;8.98;100.00;101939.88;5017237;28;19924;-79
2021/12/12 11:42:42;;;;;;;;;;;;;;;9.03;100.00;101937.53;5017827;28;19994;-78
2021/12/12 11:45:16;;;;;;;;;;;;;;;9.08;100.00;101943.06;5017986;28;20362;-79
2021/12/12 11:48:00;;;;;;;;;;;;;;;9.05;100.00;101949.03;5035148;28;20412;-79
2021/12/12 11:50:38;;;;;;;;;;;;;;;9.10;100.00;101946.69;5017546;28;20365;-79
2021/12/12 11:53:20;;;;;;;;;;;;;;;9.13;100.00;101954.75;5016802;28;19921;-80
2021/12/12 11:55:54;;;;;;;;;;;;;;;9.14;100.00;101948.69;5017044;28;19917;-79
2021/12/12 11:58:35;;;;;;;;;;;;;;;9.22;100.00;101954.41;5016752;28;19921;-79
2021/12/12 12:01:06;;;;;;;;;;;;;;;9.23;100.00;101954.47;5016243;28;19917;-79
2021/12/12 12:03:40;;;;;;;;;;;;;;;9.25;100.00;101949.31;5017307;28;20011;-79
2021/12/12 12:06:12;;;;;;;;;;;;;;;9.22;100.00;101957.03;5017194;28;19970;-79
2021/12/12 12:08:43;;;;;;;;;;;;;;;9.24;100.00;101955.38;5017361;28;19917;-79
2021/12/12 12:11:28;;;;;;;;;;;;;;;9.21;100.00;101963.09;5017100;28;19921;-80
2021/12/12 12:13:53;;;;;;;;;;;;;;;9.21;100.00;101966.59;5015746;28;19975;-79
2021/12/12 12:16:29;;;;;;;;;;;;;;;9.27;100.00;101964.34;5019007;28;19920;-79
2021/12/12 12:19:02;;;;;;;;;;;;;;;9.32;100.00;101968.16;5018507;28;19917;-79
2021/12/12 12:21:46;;;;;;;;;;;;;;;9.32;100.00;101960.28;5018880;28;20345;-79
2021/12/12 12:24:17;;;;;;;;;;;;;;;9.32;100.00;101965.53;5019087;28;19966;-78
2021/12/12 12:26:55;;;;;;;;;;;;;;;9.33;100.00;101963.81;5018843;28;19917;-79
2021/12/12 12:29:33;;;;;;;;;;;;;;;9.31;100.00;101961.09;5019078;28;19955;-79
2021/12/12 12:32:04;;;;;;;;;;;;;;;9.36;100.00;101965.72;5018923;28;20412;-79
2021/12/12 12:34:48;;;;;;;;;;;;;;;9.30;100.00;101967.16;5020265;28;19980;-80
2021/12/12 12:37:33;;;;;;;;;;;;;;;9.37;100.00;101964.88;5019124;28;19928;-79
2021/12/12 12:40:17;;;;;;;;;;;;;;;9.29;100.00;101973.25;5018845;28;19956;-79
2021/12/12 12:43:01;;;;;;;;;;;;;;;9.33;100.00;101971.69;5003836;28;19929;-78
2021/12/12 12:45:45;;;;;;;;;;;;;;;9.37;100.00;101963.19;4995893;28;19953;-79
2021/12/12 12:48:29;;;;;;;;;;;;;;;9.37;100.00;101978.03;4995388;28;20007;-80
2021/12/12 12:51:04;;;;;;;;;;;;;;;9.36;100.00;101970.97;4995591;28;19917;-78
2021/12/12 12:53:48;;;;;;;;;;;;;;;9.34;100.00;101963.91;4996033;28;19925;-79
2021/12/12 12:56:32;;;;;;;;;;;;;;;9.38;100.00;101974.59;4995769;28;19918;-79
2021/12/12 12:58:58;;;;;;;;;;;;;;;9.42;100.00;101972.22;4995516;28;19917;-79
2021/12/12 13:01:32;;;;;;;;;;;;;;;9.37;100.00;101978.97;4996131;28;19922;-79
2021/12/12 13:04:01;;;;;;;;;;;;;;;9.45;100.00;101982.94;4996120;28;19918;-79
2021/12/12 13:06:45;;;;;;;;;;;;;;;9.43;100.00;101986.28;4995624;28;19921;-79
2021/12/12 13:09:13;;;;;;;;;;;;;;;9.43;100.00;101984.56;4995388;28;19971;-80
2021/12/12 13:11:57;;;;;;;;;;;;;;;9.44;100.00;101980.22;4995424;28;19972;-79